createdAt,value
2022-11-08T00:02:42.391Z,98.66
2022-11-08T00:07:03.171Z,97.80
2022-11-08T00:11:23.351Z,97.89
2022-11-08T00:15:24.933Z,98.50
2022-11-08T00:19:27.044Z,99.15
2022-11-08T00:23:28.393Z,99.89
2022-11-08T00:27:29.741Z,100.00
2022-11-08T00:31:31.405Z,100.00
2022-11-08T00:35:32.724Z,100.00
2022-11-08T00:39:34.235Z,100.00
2022-11-08T00:43:35.604Z,100.00
2022-11-08T00:47:36.871Z,100.00
2022-11-08T00:51:38.237Z,99.95
2022-11-08T00:55:39.879Z,100.00
2022-11-08T00:59:41.221Z,100.00
2022-11-08T01:03:42.680Z,100.00
2022-11-08T01:07:44.039Z,100.00
2022-11-08T01:11:46.635Z,100.00
2022-11-08T01:15:48.651Z,100.00
2022-11-08T01:19:49.970Z,99.99
2022-11-08T01:23:51.612Z,99.75
2022-11-08T01:27:52.885Z,99.12
2022-11-08T01:31:54.210Z,98.11
2022-11-08T01:35:55.849Z,98.28
2022-11-08T01:39:57.192Z,98.61
2022-11-08T01:43:59.131Z,98.31
2022-11-08T01:48:00.733Z,98.54
2022-11-08T01:52:14.329Z,98.68
2022-11-08T01:56:15.863Z,97.84
2022-11-08T02:00:17.843Z,98.30
2022-11-08T02:04:19.575Z,98.61
2022-11-08T02:08:30.316Z,98.44
2022-11-08T02:12:32.099Z,98.96
2022-11-08T02:16:33.419Z,99.34
2022-11-08T02:20:35.211Z,99.09
2022-11-08T02:24:36.710Z,98.68
2022-11-08T02:28:42.449Z,98.71
2022-11-08T02:32:43.791Z,99.21
2022-11-08T02:36:47.473Z,99.06
2022-11-08T02:40:50.424Z,99.43
2022-11-08T02:44:51.710Z,99.14
2022-11-08T02:48:53.168Z,99.73
2022-11-08T02:52:54.476Z,100.00
2022-11-08T02:56:55.768Z,100.00
2022-11-08T03:00:57.491Z,99.92
2022-11-08T03:04:58.811Z,99.73
2022-11-08T03:09:00.205Z,99.65
2022-11-08T03:13:03.538Z,98.95
2022-11-08T03:17:04.999Z,98.89
2022-11-08T03:21:06.285Z,98.64
2022-11-08T03:25:07.744Z,99.12
2022-11-08T03:29:09.124Z,98.11
2022-11-08T03:33:10.616Z,98.42
2022-11-08T03:37:11.959Z,98.48
2022-11-08T03:41:13.259Z,98.42
2022-11-08T03:45:15.178Z,98.55
2022-11-08T03:49:16.540Z,98.79
2022-11-08T03:53:17.808Z,97.76
2022-11-08T03:57:19.090Z,98.31
2022-11-08T04:01:20.403Z,98.16
2022-11-08T04:05:22.248Z,98.68
2022-11-08T04:09:23.496Z,98.01
2022-11-08T04:13:43.864Z,98.69
2022-11-08T04:18:05.495Z,98.98
2022-11-08T04:22:07.706Z,99.62
2022-11-08T04:26:11.544Z,100.00
2022-11-08T04:30:12.906Z,100.00
2022-11-08T04:34:14.199Z,100.00
2022-11-08T04:38:16.057Z,99.66
2022-11-08T04:42:17.589Z,99.52
2022-11-08T04:46:20.144Z,99.31
2022-11-08T04:50:21.623Z,99.56
2022-11-08T04:54:23.015Z,99.87
2022-11-08T04:58:24.239Z,99.90
2022-11-08T05:02:27.428Z,100.00
2022-11-08T05:06:30.199Z,100.00
2022-11-08T05:10:31.664Z,100.00
2022-11-08T05:14:32.982Z,100.00
2022-11-08T05:18:34.851Z,100.00
2022-11-08T05:22:54.955Z,100.00
2022-11-08T05:26:56.672Z,100.00
2022-11-08T05:30:58.283Z,100.00
2022-11-08T05:34:59.591Z,100.00
2022-11-08T05:39:00.823Z,100.00
2022-11-08T05:43:02.167Z,100.00
2022-11-08T05:47:03.473Z,100.00
2022-11-08T05:51:05.072Z,100.00
2022-11-08T05:55:06.624Z,100.00
2022-11-08T05:59:08.031Z,100.00
2022-11-08T06:03:09.585Z,99.61
2022-11-08T06:07:10.956Z,99.27
2022-11-08T06:11:17.032Z,98.75
2022-11-08T06:15:18.398Z,97.90
2022-11-08T06:19:19.639Z,97.13
2022-11-08T06:23:21.532Z,96.65
2022-11-08T06:27:22.894Z,96.19
2022-11-08T06:31:24.423Z,95.57
2022-11-08T06:35:25.741Z,95.27
2022-11-08T06:39:27.220Z,94.33
2022-11-08T06:43:28.745Z,94.29
2022-11-08T06:47:30.286Z,93.94
2022-11-08T06:51:31.624Z,93.37
2022-11-08T06:55:33.732Z,93.52
2022-11-08T06:59:35.162Z,92.84
2022-11-08T07:03:37.247Z,93.16
2022-11-08T07:07:39.042Z,93.38
2022-11-08T07:11:40.638Z,93.71
2022-11-08T07:15:42.047Z,94.13
2022-11-08T07:19:44.639Z,94.70
2022-11-08T07:23:45.909Z,94.86
2022-11-08T07:27:47.291Z,95.37
2022-11-08T07:31:48.584Z,95.19
2022-11-08T07:35:49.891Z,94.43
2022-11-08T07:39:53.003Z,94.24
2022-11-08T07:43:56.643Z,94.28
2022-11-08T07:48:24.089Z,93.68
2022-11-08T07:52:39.335Z,94.25
2022-11-08T07:56:40.648Z,94.17
2022-11-08T08:00:42.746Z,92.57
2022-11-08T08:04:48.075Z,89.78
2022-11-08T08:08:51.451Z,86.71
2022-11-08T08:12:52.857Z,84.02
2022-11-08T08:16:54.536Z,82.12
2022-11-08T08:20:56.239Z,82.10
2022-11-08T08:25:02.758Z,79.70
2022-11-08T08:29:04.583Z,79.28
2022-11-08T08:37:29.140Z,76.46
2022-11-08T09:06:25.480Z,69.97
2022-11-08T09:50:28.822Z,61.69
2022-11-08T10:04:26.185Z,65.09
2022-11-08T10:08:46.420Z,63.45
2022-11-08T11:53:12.566Z,58.75
2022-11-08T12:36:02.920Z,59.07
2022-11-08T12:50:29.426Z,58.89
2022-11-08T13:01:23.842Z,59.02
2022-11-08T13:30:23.127Z,60.00
2022-11-08T19:40:05.529Z,79.95
2022-11-08T20:03:20.893Z,83.30
2022-11-08T20:07:24.065Z,84.33
2022-11-08T20:11:36.390Z,85.96
2022-11-08T20:15:38.061Z,87.28
2022-11-08T20:19:43.724Z,88.02
2022-11-08T20:23:46.431Z,88.54
2022-11-08T20:32:09.636Z,90.02
2022-11-08T20:36:34.844Z,90.47
2022-11-08T20:45:17.271Z,91.71
2022-11-08T20:49:33.837Z,91.83
2022-11-08T20:54:14.889Z,92.92
2022-11-08T21:02:39.186Z,93.56
2022-11-08T21:06:48.703Z,92.59
2022-11-08T21:15:27.260Z,93.44
2022-11-08T21:19:57.539Z,93.69
2022-11-08T21:24:25.027Z,93.87
2022-11-08T21:28:54.815Z,94.33
2022-11-08T21:33:06.522Z,95.27
2022-11-08T21:37:16.689Z,95.08
2022-11-08T21:41:18.941Z,94.88
2022-11-08T21:45:36.898Z,95.59
2022-11-08T22:17:23.146Z,95.73
2022-11-08T22:21:40.990Z,96.29
2022-11-08T22:25:43.999Z,97.63
2022-11-08T22:29:46.202Z,99.00
2022-11-08T22:33:48.184Z,99.48
2022-11-08T22:37:49.519Z,99.89
2022-11-08T22:41:52.559Z,100.00
2022-11-08T22:45:53.798Z,100.00
2022-11-08T22:49:55.099Z,100.00
2022-11-08T22:53:56.371Z,100.00
2022-11-08T22:57:57.653Z,100.00
2022-11-08T23:01:58.913Z,100.00
2022-11-08T23:06:00.287Z,100.00
2022-11-08T23:10:01.572Z,100.00
2022-11-08T23:14:21.815Z,100.00
2022-11-08T23:18:23.847Z,100.00
2022-11-08T23:22:44.451Z,100.00
2022-11-08T23:27:04.604Z,100.00
2022-11-08T23:31:35.342Z,100.00
2022-11-08T23:35:36.707Z,100.00
2022-11-08T23:40:01.392Z,100.00
2022-11-08T23:44:21.345Z,100.00
2022-11-08T23:48:22.770Z,100.00
2022-11-08T23:52:24.048Z,100.00
2022-11-08T23:56:26.403Z,100.00
